createdAt,value
2018-12-30T00:04:24.075Z,3.62
2018-12-30T00:07:14.016Z,2.33
2018-12-30T00:09:56.269Z,2.30
2018-12-30T00:12:46.017Z,1.98
2018-12-30T00:15:28.992Z,2.30
2018-12-30T00:18:18.700Z,2.13
2018-12-30T00:21:08.799Z,2.50
2018-12-30T00:23:52.342Z,2.13
2018-12-30T00:26:35.016Z,2.40
2018-12-30T00:29:20.097Z,2.92
2018-12-30T00:32:09.765Z,2.27
2018-12-30T00:34:54.002Z,2.40
2018-12-30T00:37:43.710Z,1.70
2018-12-30T00:40:25.804Z,2.07
2018-12-30T00:43:17.218Z,1.50
2018-12-30T00:48:53.134Z,2.10
2018-12-30T00:51:42.686Z,2.90
2018-12-30T00:54:25.028Z,3.27
2018-12-30T00:57:15.555Z,2.40
2018-12-30T01:00:05.973Z,1.97
2018-12-30T01:02:47.854Z,1.70
2018-12-30T01:05:39.288Z,2.07
2018-12-30T01:08:21.819Z,2.20
2018-12-30T01:11:11.494Z,1.93
2018-12-30T01:14:01.186Z,2.57
2018-12-30T01:16:43.904Z,2.30
2018-12-30T01:19:33.609Z,2.90
2018-12-30T01:22:16.281Z,3.47
2018-12-30T01:25:06.416Z,3.10
2018-12-30T01:27:50.383Z,3.33
2018-12-30T01:30:32.915Z,3.80
2018-12-30T01:33:41.602Z,3.70
2018-12-30T01:36:24.446Z,3.13
2018-12-30T01:42:15.773Z,4.35
2018-12-30T01:45:05.530Z,4.70
2018-12-30T01:47:47.167Z,3.90
2018-12-30T01:50:37.048Z,3.97
2018-12-30T01:53:21.452Z,4.42
2018-12-30T01:56:10.869Z,4.63
2018-12-30T01:58:53.342Z,5.23
2018-12-30T02:04:43.892Z,5.13
2018-12-30T02:07:33.435Z,5.63
2018-12-30T02:10:17.056Z,5.73
2018-12-30T02:13:06.761Z,6.83
2018-12-30T02:15:49.745Z,5.70
2018-12-30T02:18:41.137Z,6.60
2018-12-30T02:21:23.329Z,6.60
2018-12-30T02:24:12.998Z,5.20
2018-12-30T02:26:55.668Z,6.07
2018-12-30T02:29:38.045Z,5.13
2018-12-30T02:35:15.964Z,5.57
2018-12-30T02:38:05.653Z,5.90
2018-12-30T02:40:51.750Z,5.30
2018-12-30T02:43:41.423Z,5.70
2018-12-30T02:46:25.413Z,6.07
2018-12-30T02:49:15.058Z,6.20
2018-12-30T02:51:57.364Z,5.67
2018-12-30T02:54:47.750Z,5.37
2018-12-30T02:57:30.097Z,5.70
2018-12-30T03:03:21.549Z,6.33
2018-12-30T03:06:11.188Z,5.47
2018-12-30T03:08:53.564Z,6.30
2018-12-30T03:11:43.272Z,5.70
2018-12-30T03:14:25.848Z,5.80
2018-12-30T03:17:15.471Z,6.37
2018-12-30T03:19:58.399Z,6.15
2018-12-30T03:22:48.354Z,6.47
2018-12-30T03:25:31.179Z,6.60
2018-12-30T03:28:20.777Z,6.43
2018-12-30T03:31:03.140Z,7.23
2018-12-30T03:33:52.784Z,6.20
2018-12-30T03:36:35.140Z,6.80
2018-12-30T03:39:24.743Z,6.93
2018-12-30T03:42:07.220Z,6.25
2018-12-30T03:47:58.290Z,5.27
2018-12-30T03:53:49.200Z,5.50
2018-12-30T03:56:38.893Z,5.60
2018-12-30T03:59:21.321Z,5.97
2018-12-30T04:02:10.983Z,4.47
2018-12-30T04:04:53.255Z,5.00
2018-12-30T04:08:02.365Z,5.47
2018-12-30T04:10:44.454Z,4.47
2018-12-30T04:13:34.130Z,4.70
2018-12-30T04:16:16.484Z,4.30
2018-12-30T04:19:06.230Z,3.90
2018-12-30T04:21:48.036Z,4.10
2018-12-30T04:24:18.357Z,4.30
2018-12-30T04:29:43.753Z,4.63
2018-12-30T04:32:33.850Z,5.72
2018-12-30T04:35:16.722Z,4.73
2018-12-30T04:38:06.382Z,4.23
2018-12-30T04:40:56.366Z,3.82
2018-12-30T04:43:40.275Z,3.65
2018-12-30T04:46:29.960Z,3.63
2018-12-30T04:49:12.253Z,3.93
2018-12-30T04:52:02.060Z,4.17
2018-12-30T04:54:45.871Z,3.50
2018-12-30T04:57:27.715Z,3.37
2018-12-30T05:00:17.351Z,3.17
2018-12-30T05:02:59.903Z,3.17
2018-12-30T05:05:49.587Z,3.70
2018-12-30T05:08:32.202Z,3.05
2018-12-30T05:11:21.900Z,3.37
2018-12-30T05:14:11.633Z,2.83
2018-12-30T05:16:54.072Z,2.73
2018-12-30T05:19:43.726Z,3.30
2018-12-30T05:22:33.628Z,3.53
2018-12-30T05:25:17.396Z,2.60
2018-12-30T05:28:00.171Z,3.17
2018-12-30T05:30:42.102Z,2.30
2018-12-30T05:33:31.804Z,2.90
2018-12-30T05:36:03.030Z,2.92
2018-12-30T05:38:52.194Z,2.83
2018-12-30T05:41:34.946Z,1.90
2018-12-30T05:44:24.560Z,2.13
2018-12-30T05:47:09.816Z,2.50
2018-12-30T05:49:59.804Z,2.23
2018-12-30T05:52:42.712Z,2.35
2018-12-30T05:55:32.433Z,2.55
2018-12-30T05:58:16.683Z,2.52
2018-12-30T06:01:06.425Z,2.53
2018-12-30T06:03:49.022Z,2.90
2018-12-30T06:06:39.009Z,2.20
2018-12-30T06:09:21.055Z,2.13
2018-12-30T06:12:10.729Z,2.13
2018-12-30T06:17:49.735Z,2.40
2018-12-30T06:20:32.168Z,2.70
2018-12-30T06:23:21.886Z,3.60
2018-12-30T06:26:04.667Z,3.33
2018-12-30T06:28:54.709Z,2.53
2018-12-30T06:31:36.804Z,2.60
2018-12-30T06:34:07.180Z,2.67
2018-12-30T06:36:56.862Z,3.17
2018-12-30T06:39:46.545Z,2.40
2018-12-30T06:42:28.951Z,3.10
2018-12-30T06:45:18.632Z,2.10
2018-12-30T06:48:01.407Z,2.93
2018-12-30T06:50:51.127Z,2.17
2018-12-30T06:53:34.889Z,2.50
2018-12-30T06:56:25.004Z,2.30
2018-12-30T06:59:14.668Z,2.75
2018-12-30T07:02:04.354Z,2.50
2018-12-30T07:04:46.771Z,2.02
2018-12-30T07:10:25.867Z,2.20
2018-12-30T07:13:15.520Z,1.97
2018-12-30T07:15:57.876Z,2.40
2018-12-30T07:18:47.249Z,2.30
2018-12-30T07:21:29.821Z,1.67
2018-12-30T07:24:19.209Z,2.70
2018-12-30T07:27:00.989Z,2.73
2018-12-30T07:29:51.027Z,2.62
2018-12-30T07:32:34.641Z,2.40
2018-12-30T07:35:24.186Z,2.00
2018-12-30T07:38:06.858Z,2.07
2018-12-30T07:40:49.483Z,2.75
2018-12-30T07:43:39.070Z,2.17
2018-12-30T07:46:21.994Z,2.23
2018-12-30T07:49:11.664Z,2.40
2018-12-30T07:52:01.348Z,2.63
2018-12-30T07:54:44.335Z,2.57
2018-12-30T07:57:33.747Z,2.80
2018-12-30T08:00:17.043Z,3.57
2018-12-30T08:03:06.463Z,2.10
2018-12-30T08:05:48.793Z,2.37
2018-12-30T08:08:38.164Z,2.70
2018-12-30T08:11:21.682Z,2.73
2018-12-30T08:14:24.983Z,1.90
2018-12-30T08:16:55.645Z,2.13
2018-12-30T08:19:45.095Z,2.55
2018-12-30T08:22:27.227Z,2.70
2018-12-30T08:25:16.619Z,2.73
2018-12-30T08:27:58.179Z,2.02
2018-12-30T08:30:47.570Z,2.30
2018-12-30T08:33:30.482Z,2.03
2018-12-30T08:36:20.735Z,1.70
2018-12-30T08:39:02.295Z,1.75
2018-12-30T08:41:51.699Z,2.00
2018-12-30T08:44:34.176Z,1.70
2018-12-30T08:47:23.642Z,2.43
2018-12-30T08:50:07.997Z,2.07
2018-12-30T08:52:57.400Z,2.20
2018-12-30T08:55:41.266Z,2.05
2018-12-30T08:58:12.189Z,2.22
2018-12-30T09:01:01.556Z,2.10
2018-12-30T09:03:51.183Z,2.50
2018-12-30T09:06:33.736Z,2.13
2018-12-30T09:12:11.985Z,2.20
2018-12-30T09:15:01.299Z,2.98
2018-12-30T09:17:44.585Z,2.13
2018-12-30T09:20:36.027Z,2.47
2018-12-30T09:23:19.322Z,2.55
2018-12-30T09:26:09.131Z,3.28
2018-12-30T09:28:53.779Z,2.60
2018-12-30T09:31:43.971Z,2.60
2018-12-30T09:34:14.850Z,3.35
2018-12-30T09:37:04.784Z,2.60
2018-12-30T09:39:53.854Z,2.80
2018-12-30T09:42:35.842Z,3.87
2018-12-30T09:48:22.823Z,3.67
2018-12-30T09:51:05.095Z,2.60
2018-12-30T09:53:54.858Z,3.07
2018-12-30T09:56:44.701Z,2.33
2018-12-30T09:59:36.628Z,2.80
2018-12-30T10:02:20.285Z,2.83
2018-12-30T10:05:10.076Z,2.80
2018-12-30T10:07:52.095Z,2.77
2018-12-30T10:10:43.843Z,2.73
2018-12-30T10:13:14.430Z,2.70
2018-12-30T10:16:04.129Z,2.77
2018-12-30T10:18:54.351Z,2.80
2018-12-30T10:21:36.655Z,3.13
2018-12-30T10:24:26.436Z,2.70
2018-12-30T10:27:09.542Z,3.03
2018-12-30T10:29:58.956Z,2.60
2018-12-30T10:32:41.562Z,3.00
2018-12-30T10:35:32.746Z,2.80
2018-12-30T10:38:22.549Z,3.77
2018-12-30T10:41:05.498Z,2.95
2018-12-30T10:43:54.820Z,3.30
2018-12-30T10:46:44.568Z,3.00
2018-12-30T10:49:26.437Z,3.77
2018-12-30T10:52:31.045Z,2.97
2018-12-30T10:55:00.634Z,2.80
2018-12-30T10:57:50.298Z,3.58
2018-12-30T11:00:34.284Z,3.47
2018-12-30T11:03:23.698Z,3.07
2018-12-30T11:06:06.003Z,4.55
2018-12-30T11:08:55.453Z,3.47
2018-12-30T11:11:44.960Z,3.20
2018-12-30T11:14:34.699Z,3.47
2018-12-30T11:17:16.677Z,4.27
2018-12-30T11:20:06.434Z,2.70
2018-12-30T11:22:48.530Z,3.83
2018-12-30T11:25:19.661Z,3.83
2018-12-30T11:28:09.189Z,3.17
2018-12-30T11:30:58.677Z,3.10
2018-12-30T11:33:41.910Z,2.83
2018-12-30T11:39:22.122Z,2.57
2018-12-30T11:42:11.795Z,3.70
2018-12-30T11:44:53.821Z,2.73
2018-12-30T11:53:36.687Z,3.30
2018-12-30T11:56:26.063Z,3.60
2018-12-30T11:59:09.134Z,4.10
2018-12-30T12:01:58.580Z,3.33
2018-12-30T12:04:40.302Z,3.75
2018-12-30T12:07:30.009Z,3.13
2018-12-30T12:10:15.757Z,3.47
2018-12-30T12:13:05.144Z,3.50
2018-12-30T12:15:47.623Z,3.90
2018-12-30T12:18:17.849Z,3.17
2018-12-30T12:21:07.386Z,3.23
2018-12-30T12:23:53.766Z,3.00
2018-12-30T12:26:35.439Z,3.03
2018-12-30T12:29:24.839Z,3.47
2018-12-30T12:32:11.236Z,3.70
2018-12-30T12:35:00.634Z,3.37
2018-12-30T12:37:42.711Z,3.50
2018-12-30T12:40:26.384Z,3.70
2018-12-30T12:43:16.191Z,3.07
2018-12-30T12:45:57.932Z,3.00
2018-12-30T12:48:28.282Z,3.08
2018-12-30T12:51:17.958Z,3.27
2018-12-30T12:54:07.694Z,3.00
2018-12-30T12:56:57.913Z,3.77
2018-12-30T12:59:42.368Z,3.70
2018-12-30T13:02:32.204Z,3.83
2018-12-30T13:05:14.345Z,3.40
2018-12-30T13:08:24.660Z,2.70
2018-12-30T13:11:08.760Z,3.02
2018-12-30T13:13:58.485Z,3.70
2018-12-30T13:16:48.329Z,3.13
2018-12-30T13:19:38.052Z,3.60
2018-12-30T13:22:20.497Z,3.30
2018-12-30T13:25:09.965Z,3.33
2018-12-30T13:27:52.580Z,3.10
2018-12-30T13:30:42.371Z,2.77
2018-12-30T13:33:24.566Z,2.30
2018-12-30T13:36:09.081Z,2.63
2018-12-30T13:38:58.757Z,2.30
2018-12-30T13:41:41.105Z,2.77
2018-12-30T13:44:30.497Z,2.22
2018-12-30T13:47:17.444Z,2.33
2018-12-30T13:50:09.199Z,2.37
2018-12-30T13:52:51.417Z,2.77
2018-12-30T13:55:41.121Z,3.07
2018-12-30T13:58:23.351Z,3.00
2018-12-30T14:00:54.081Z,2.87
2018-12-30T14:03:43.862Z,2.77
2018-12-30T14:06:33.266Z,4.43
2018-12-30T14:11:54.836Z,4.13
2018-12-30T14:14:45.093Z,3.33
2018-12-30T14:20:11.053Z,2.80
2018-12-30T14:23:01.035Z,3.77
2018-12-30T14:25:31.331Z,3.13
2018-12-30T14:28:21.042Z,3.43
2018-12-30T14:31:03.654Z,3.13
2018-12-30T14:33:45.642Z,3.42
2018-12-30T14:36:35.182Z,2.43
2018-12-30T14:39:17.592Z,2.57
2018-12-30T14:42:27.915Z,2.47
2018-12-30T14:44:59.536Z,3.44
2018-12-30T14:47:29.882Z,2.97
2018-12-30T14:50:38.374Z,3.02
2018-12-30T14:56:34.697Z,2.93
2018-12-30T14:59:43.609Z,2.70
2018-12-30T15:02:25.359Z,3.87
2018-12-30T15:08:02.975Z,3.00
2018-12-30T15:13:41.088Z,2.83
2018-12-30T15:16:30.738Z,2.70
2018-12-30T15:19:01.107Z,3.27
2018-12-30T15:21:50.765Z,2.50
2018-12-30T15:24:40.407Z,2.98
2018-12-30T15:27:22.415Z,3.20
2018-12-30T15:30:12.043Z,3.83
2018-12-30T15:32:54.751Z,4.27
2018-12-30T15:35:36.921Z,2.80
2018-12-30T15:38:27.240Z,3.58
2018-12-30T15:41:09.870Z,3.10
2018-12-30T15:43:59.869Z,3.52
2018-12-30T15:46:42.370Z,3.23
2018-12-30T15:49:34.841Z,3.45
2018-12-30T15:52:24.660Z,4.10
2018-12-30T15:55:19.358Z,3.20
2018-12-30T15:58:00.120Z,2.53
2018-12-30T16:00:51.844Z,3.60
2018-12-30T16:03:41.289Z,3.60
2018-12-30T16:06:23.214Z,3.33
2018-12-30T16:09:13.039Z,2.80
2018-12-30T16:11:55.794Z,3.37
2018-12-30T16:14:45.493Z,3.07
2018-12-30T16:20:30.456Z,2.93
2018-12-30T16:23:16.917Z,2.93
2018-12-30T16:25:47.207Z,3.10
2018-12-30T16:28:36.549Z,3.70
2018-12-30T16:31:06.816Z,3.05
2018-12-30T16:36:59.228Z,3.17
2018-12-30T16:39:48.901Z,3.33
2018-12-30T16:42:38.511Z,2.93
2018-12-30T16:45:20.597Z,3.10
2018-12-30T16:48:10.224Z,3.22
2018-12-30T16:50:52.549Z,3.43
2018-12-30T16:53:42.401Z,2.50
2018-12-30T16:56:25.930Z,3.30
2018-12-30T16:59:36.406Z,3.17
2018-12-30T17:02:19.126Z,3.22
2018-12-30T17:08:05.676Z,2.80
2018-12-30T17:10:48.353Z,2.80
2018-12-30T17:16:38.857Z,2.30
2018-12-30T17:22:29.612Z,2.80
2018-12-30T17:25:19.239Z,2.50
2018-12-30T17:28:01.860Z,2.80
2018-12-30T17:33:56.139Z,2.40
2018-12-30T17:36:58.951Z,3.33
2018-12-30T17:39:30.679Z,2.73
2018-12-30T17:42:20.087Z,2.90
2018-12-30T17:45:02.382Z,3.47
2018-12-30T17:47:52.063Z,2.63
2018-12-30T17:50:33.697Z,2.73
2018-12-30T17:53:23.348Z,2.53
2018-12-30T17:56:07.299Z,3.03
2018-12-30T18:01:45.343Z,2.83
2018-12-30T18:10:26.415Z,2.87
2018-12-30T18:13:18.227Z,2.50
2018-12-30T18:15:59.793Z,2.60
2018-12-30T18:24:40.173Z,2.80
2018-12-30T18:30:31.284Z,3.77
2018-12-30T18:36:22.700Z,2.93
2018-12-30T18:39:12.353Z,2.63
2018-12-30T18:41:54.199Z,2.37
2018-12-30T18:50:45.304Z,3.07
2018-12-30T18:53:35.525Z,2.95
2018-12-30T18:56:17.769Z,3.40
2018-12-30T18:59:07.204Z,2.90
2018-12-30T19:01:49.339Z,3.03
2018-12-30T19:04:38.702Z,2.47
2018-12-30T19:07:22.626Z,2.60
2018-12-30T19:10:12.568Z,2.77
2018-12-30T19:13:02.412Z,3.30
2018-12-30T19:15:43.934Z,3.45
2018-12-30T19:21:31.422Z,2.90
2018-12-30T19:24:13.999Z,2.97
2018-12-30T19:27:24.003Z,3.70
2018-12-30T19:30:07.130Z,3.63
2018-12-30T19:32:56.757Z,3.62
2018-12-30T19:35:39.465Z,3.60
2018-12-30T19:38:09.716Z,3.27
2018-12-30T19:41:01.440Z,4.13
2018-12-30T19:43:43.760Z,4.23
2018-12-30T19:46:35.154Z,4.00
2018-12-30T19:49:17.273Z,4.53
2018-12-30T19:52:06.939Z,5.03
2018-12-30T19:54:37.188Z,5.13
2018-12-30T20:00:23.126Z,5.73
2018-12-30T20:03:06.259Z,6.00
2018-12-30T20:05:49.085Z,4.73
2018-12-30T20:08:31.472Z,5.60
2018-12-30T20:11:34.643Z,4.93
2018-12-30T20:14:04.803Z,5.00
2018-12-30T20:16:54.510Z,4.77
2018-12-30T20:19:36.998Z,5.00
2018-12-30T20:22:26.623Z,4.77
2018-12-30T20:25:08.788Z,4.87
2018-12-30T20:27:58.482Z,5.72
2018-12-30T20:30:42.549Z,5.70
2018-12-30T20:36:40.470Z,4.90
2018-12-30T20:39:30.604Z,5.50
2018-12-30T20:42:14.284Z,5.03
2018-12-30T20:47:52.700Z,4.92
2018-12-30T20:50:42.433Z,5.60
2018-12-30T20:53:24.315Z,5.60
2018-12-30T20:56:13.865Z,5.15
2018-12-30T20:58:55.588Z,4.87
2018-12-30T21:01:59.101Z,4.90
2018-12-30T21:04:28.779Z,5.80
2018-12-30T21:07:18.501Z,5.20
2018-12-30T21:10:00.806Z,4.80
2018-12-30T21:15:38.605Z,6.30
2018-12-30T21:18:28.164Z,5.87
2018-12-30T21:21:17.753Z,6.20
2018-12-30T21:24:01.510Z,5.77
2018-12-30T21:26:31.989Z,5.07
2018-12-30T21:29:36.777Z,6.37
2018-12-30T21:37:52.972Z,5.90
2018-12-30T21:40:42.380Z,6.27
2018-12-30T21:43:24.798Z,5.93
2018-12-30T21:49:17.917Z,6.35
2018-12-30T21:52:07.378Z,5.53
2018-12-30T21:54:49.789Z,7.80
2018-12-30T22:00:40.499Z,6.60
2018-12-30T22:03:30.190Z,6.08
2018-12-30T22:06:12.813Z,6.93
2018-12-30T22:09:02.480Z,6.77
2018-12-30T22:11:44.360Z,7.40
2018-12-30T22:17:36.784Z,6.67
2018-12-30T22:20:26.148Z,7.40
2018-12-30T22:23:08.694Z,7.07
2018-12-30T22:29:01.071Z,7.73
2018-12-30T22:31:50.469Z,8.53
2018-12-30T22:34:34.195Z,8.60
2018-12-30T22:37:17.412Z,7.97
2018-12-30T22:40:27.702Z,8.00
2018-12-30T22:43:10.148Z,8.10
2018-12-30T22:48:47.011Z,8.50
2018-12-30T22:54:39.040Z,9.07
2018-12-30T22:57:21.261Z,9.10
2018-12-30T23:03:23.544Z,9.67
2018-12-30T23:09:02.844Z,9.83
2018-12-30T23:14:46.838Z,10.27
2018-12-30T23:17:36.490Z,9.53
2018-12-30T23:20:18.834Z,11.03
2018-12-30T23:23:08.481Z,9.60
2018-12-30T23:25:50.237Z,9.68
2018-12-30T23:28:40.213Z,9.25
2018-12-30T23:31:22.156Z,9.07
2018-12-30T23:34:11.904Z,10.50
2018-12-30T23:36:54.335Z,9.57
2018-12-30T23:39:36.245Z,9.77
2018-12-30T23:45:08.259Z,9.50
2018-12-30T23:47:57.594Z,10.37
2018-12-30T23:50:39.237Z,9.63
2018-12-30T23:53:28.947Z,9.70
2018-12-30T23:56:11.007Z,9.73
2018-12-30T23:59:00.714Z,10.08
